sensor_id;sensor_type;location;lat;lon;timestamp;pressure;altitude;pressure_sealevel;temperature;humidity
6032;BME280;3044;43.232;27.972;2022-07-22T00:00:42;44972.91;;;-143.84;43.25
6032;BME280;3044;43.232;27.972;2022-07-22T00:03:10;44991.94;;;-143.84;42.85
6032;BME280;3044;43.232;27.972;2022-07-22T00:05:37;44971.00;;;-143.84;43.25
6032;BME280;3044;43.232;27.972;2022-07-22T00:08:04;45010.97;;;-143.84;43.36
6032;BME280;3044;43.232;27.972;2022-07-22T00:10:32;44999.56;;;-143.84;42.59
6032;BME280;3044;43.232;27.972;2022-07-22T00:12:59;44982.41;;;-143.84;42.52
6032;BME280;3044;43.232;27.972;2022-07-22T00:15:26;44999.56;;;-143.84;41.82
6032;BME280;3044;43.232;27.972;2022-07-22T00:17:54;44999.56;;;-143.84;41.59
6032;BME280;3044;43.232;27.972;2022-07-22T00:20:22;45005.28;;;-143.84;41.40
6032;BME280;3044;43.232;27.972;2022-07-22T00:22:49;44993.84;;;-143.84;40.99
6032;BME280;3044;43.232;27.972;2022-07-22T00:25:16;45012.88;;;-143.84;40.71
6032;BME280;3044;43.232;27.972;2022-07-22T00:27:43;44991.94;;;-143.84;40.71
6032;BME280;3044;43.232;27.972;2022-07-22T00:30:11;44978.63;;;-143.84;41.30
6032;BME280;3044;43.232;27.972;2022-07-22T00:32:39;45009.09;;;-143.84;41.56
6032;BME280;3044;43.232;27.972;2022-07-22T00:35:08;44993.84;;;-143.84;42.32
6032;BME280;3044;43.232;27.972;2022-07-22T00:37:35;44988.13;;;-143.84;42.49
6032;BME280;3044;43.232;27.972;2022-07-22T00:40:03;44978.63;;;-143.84;42.73
6032;BME280;3044;43.232;27.972;2022-07-22T00:42:31;44999.56;;;-143.84;43.05
6032;BME280;3044;43.232;27.972;2022-07-22T00:44:59;44990.03;;;-143.84;43.39
6032;BME280;3044;43.232;27.972;2022-07-22T00:47:26;45035.75;;;-143.84;45.10
6032;BME280;3044;43.232;27.972;2022-07-22T00:49:54;44995.75;;;-143.84;47.03
6032;BME280;3044;43.232;27.972;2022-07-22T00:52:22;45003.38;;;-143.84;51.43
6032;BME280;3044;43.232;27.972;2022-07-22T00:54:50;44991.94;;;-143.84;55.83
6032;BME280;3044;43.232;27.972;2022-07-22T00:57:17;45003.38;;;-143.84;57.93
6032;BME280;3044;43.232;27.972;2022-07-22T00:59:45;44995.75;;;-143.84;58.58
6032;BME280;3044;43.232;27.972;2022-07-22T01:02:12;44999.56;;;-143.84;58.83
6032;BME280;3044;43.232;27.972;2022-07-22T01:04:39;44988.13;;;-143.84;59.41
6032;BME280;3044;43.232;27.972;2022-07-22T01:07:07;44997.66;;;-143.84;60.52
6032;BME280;3044;43.232;27.972;2022-07-22T01:09:35;44980.53;;;-143.84;61.77
6032;BME280;3044;43.232;27.972;2022-07-22T01:12:03;45016.69;;;-143.84;62.46
6032;BME280;3044;43.232;27.972;2022-07-22T01:14:30;44982.41;;;-143.84;61.85
6032;BME280;3044;43.232;27.972;2022-07-22T01:16:58;44988.13;;;-143.84;60.82
6032;BME280;3044;43.232;27.972;2022-07-22T01:19:25;44984.31;;;-143.84;57.56
6032;BME280;3044;43.232;27.972;2022-07-22T01:21:53;44997.66;;;-143.84;55.85
6032;BME280;3044;43.232;27.972;2022-07-22T01:24:21;44997.66;;;-143.84;55.74
6032;BME280;3044;43.232;27.972;2022-07-22T01:26:48;45009.09;;;-143.84;55.78
6032;BME280;3044;43.232;27.972;2022-07-22T01:29:15;44988.13;;;-143.84;55.37
6032;BME280;3044;43.232;27.972;2022-07-22T01:31:42;45010.97;;;-143.84;54.43
6032;BME280;3044;43.232;27.972;2022-07-22T01:34:09;45022.41;;;-143.84;53.31
6032;BME280;3044;43.232;27.972;2022-07-22T01:36:36;44988.13;;;-143.84;52.07
6032;BME280;3044;43.232;27.972;2022-07-22T01:39:05;45028.13;;;-143.84;51.14
6032;BME280;3044;43.232;27.972;2022-07-22T01:41:32;45003.38;;;-143.84;51.25
6032;BME280;3044;43.232;27.972;2022-07-22T01:43:59;44991.94;;;-143.84;50.84
6032;BME280;3044;43.232;27.972;2022-07-22T01:46:27;45014.78;;;-143.84;50.36
6032;BME280;3044;43.232;27.972;2022-07-22T01:48:54;45010.97;;;-143.84;49.89
6032;BME280;3044;43.232;27.972;2022-07-22T01:51:21;45001.47;;;-143.84;49.11
6032;BME280;3044;43.232;27.972;2022-07-22T01:53:49;45003.38;;;-143.84;48.89
6032;BME280;3044;43.232;27.972;2022-07-22T01:56:17;45014.78;;;-143.84;49.10
6032;BME280;3044;43.232;27.972;2022-07-22T01:58:44;45014.78;;;-143.84;49.10
6032;BME280;3044;43.232;27.972;2022-07-22T02:01:11;45018.59;;;-143.84;49.67
6032;BME280;3044;43.232;27.972;2022-07-22T02:03:39;44984.31;;;-143.84;50.16
6032;BME280;3044;43.232;27.972;2022-07-22T02:06:06;44997.66;;;-143.84;51.16
6032;BME280;3044;43.232;27.972;2022-07-22T02:08:33;45007.19;;;-143.84;51.53
6032;BME280;3044;43.232;27.972;2022-07-22T02:11:00;44999.56;;;-143.84;52.33
6032;BME280;3044;43.232;27.972;2022-07-22T02:13:29;44976.72;;;-143.84;51.96
6032;BME280;3044;43.232;27.972;2022-07-22T02:15:56;45012.88;;;-143.84;52.27
6032;BME280;3044;43.232;27.972;2022-07-22T02:18:23;44980.53;;;-143.84;51.81
6032;BME280;3044;43.232;27.972;2022-07-22T02:20:51;44984.31;;;-143.84;51.76
6032;BME280;3044;43.232;27.972;2022-07-22T02:23:18;45009.09;;;-143.84;51.66
6032;BME280;3044;43.232;27.972;2022-07-22T02:25:46;45010.97;;;-143.84;51.52
6032;BME280;3044;43.232;27.972;2022-07-22T02:28:13;45020.50;;;-143.84;51.96
6032;BME280;3044;43.232;27.972;2022-07-22T02:30:42;44995.75;;;-143.84;52.04
6032;BME280;3044;43.232;27.972;2022-07-22T02:33:09;44997.66;;;-143.84;52.68
6032;BME280;3044;43.232;27.972;2022-07-22T02:35:37;45005.28;;;-143.84;52.58
6032;BME280;3044;43.232;27.972;2022-07-22T02:38:04;44993.84;;;-143.84;52.98
6032;BME280;3044;43.232;27.972;2022-07-22T02:40:31;45001.47;;;-143.84;52.69
6032;BME280;3044;43.232;27.972;2022-07-22T02:42:59;44999.56;;;-143.84;53.37
6032;BME280;3044;43.232;27.972;2022-07-22T02:45:26;45012.88;;;-143.84;53.27
6032;BME280;3044;43.232;27.972;2022-07-22T02:47:55;44999.56;;;-143.84;53.13
6032;BME280;3044;43.232;27.972;2022-07-22T02:50:22;45001.47;;;-143.84;53.63
6032;BME280;3044;43.232;27.972;2022-07-22T02:52:50;45009.09;;;-143.84;53.98
6032;BME280;3044;43.232;27.972;2022-07-22T02:55:18;44980.53;;;-143.84;54.17
6032;BME280;3044;43.232;27.972;2022-07-22T02:57:45;44997.66;;;-143.84;54.38
6032;BME280;3044;43.232;27.972;2022-07-22T03:00:13;45016.69;;;-143.84;54.32
6032;BME280;3044;43.232;27.972;2022-07-22T03:02:41;44990.03;;;-143.84;54.30
6032;BME280;3044;43.232;27.972;2022-07-22T03:05:10;45012.88;;;-143.84;54.15
6032;BME280;3044;43.232;27.972;2022-07-22T03:07:38;45026.22;;;-143.84;54.08
6032;BME280;3044;43.232;27.972;2022-07-22T03:10:06;44991.94;;;-143.84;53.92
6032;BME280;3044;43.232;27.972;2022-07-22T03:12:34;45005.28;;;-143.84;53.73
6032;BME280;3044;43.232;27.972;2022-07-22T03:15:01;45026.22;;;-143.84;53.22
6032;BME280;3044;43.232;27.972;2022-07-22T03:17:28;45010.97;;;-143.84;53.17
6032;BME280;3044;43.232;27.972;2022-07-22T03:19:55;45009.09;;;-143.84;53.07
6032;BME280;3044;43.232;27.972;2022-07-22T03:22:23;45018.59;;;-143.84;53.04
6032;BME280;3044;43.232;27.972;2022-07-22T03:24:51;45005.28;;;-143.84;52.42
6032;BME280;3044;43.232;27.972;2022-07-22T03:27:18;44971.00;;;-143.84;52.89
6032;BME280;3044;43.232;27.972;2022-07-22T03:29:45;44991.94;;;-143.84;52.45
6032;BME280;3044;43.232;27.972;2022-07-22T03:32:12;45005.28;;;-143.84;52.51
6032;BME280;3044;43.232;27.972;2022-07-22T03:34:40;44984.31;;;-143.84;52.17
6032;BME280;3044;43.232;27.972;2022-07-22T03:37:07;44990.03;;;-143.84;52.00
6032;BME280;3044;43.232;27.972;2022-07-22T03:39:36;44995.75;;;-143.84;51.37
6032;BME280;3044;43.232;27.972;2022-07-22T03:42:03;44972.91;;;-143.84;49.93
6032;BME280;3044;43.232;27.972;2022-07-22T03:44:31;44959.56;;;-143.84;48.82
6032;BME280;3044;43.232;27.972;2022-07-22T03:46:58;44965.28;;;-143.84;47.52
6032;BME280;3044;43.232;27.972;2022-07-22T03:49:25;44984.31;;;-143.84;46.69
6032;BME280;3044;43.232;27.972;2022-07-22T03:51:55;44976.72;;;-143.84;45.68
6032;BME280;3044;43.232;27.972;2022-07-22T03:54:24;44959.56;;;-143.84;43.82
6032;BME280;3044;43.232;27.972;2022-07-22T03:56:53;44959.56;;;-143.84;42.47
6032;BME280;3044;43.232;27.972;2022-07-22T03:59:20;44967.19;;;-143.84;41.26
6032;BME280;3044;43.232;27.972;2022-07-22T04:01:47;44908.16;;;-143.84;40.13
6032;BME280;3044;43.232;27.972;2022-07-22T04:04:14;44953.88;;;-143.84;39.58
6032;BME280;3044;43.232;27.972;2022-07-22T04:06:41;44896.75;;;-143.84;38.72
6032;BME280;3044;43.232;27.972;2022-07-22T04:09:08;44919.59;;;-143.84;38.15
6032;BME280;3044;43.232;27.972;2022-07-22T04:11:35;44908.16;;;-143.84;37.71
6032;BME280;3044;43.232;27.972;2022-07-22T04:14:04;44906.25;;;-143.84;37.09
6032;BME280;3044;43.232;27.972;2022-07-22T04:16:31;44908.16;;;-143.84;36.96
6032;BME280;3044;43.232;27.972;2022-07-22T04:18:58;44877.69;;;-143.84;36.49
6032;BME280;3044;43.232;27.972;2022-07-22T04:21:25;44894.84;;;-143.84;36.35
6032;BME280;3044;43.232;27.972;2022-07-22T04:23:53;44887.22;;;-143.84;36.05
6032;BME280;3044;43.232;27.972;2022-07-22T04:26:20;44889.13;;;-143.84;36.11
6032;BME280;3044;43.232;27.972;2022-07-22T04:28:48;44891.03;;;-143.84;36.10
6032;BME280;3044;43.232;27.972;2022-07-22T04:31:16;44904.34;;;-143.84;36.41
6032;BME280;3044;43.232;27.972;2022-07-22T04:33:43;44879.59;;;-143.84;36.04
6032;BME280;3044;43.232;27.972;2022-07-22T04:36:12;44883.41;;;-143.84;36.11
6032;BME280;3044;43.232;27.972;2022-07-22T04:38:39;44887.22;;;-143.84;35.77
6032;BME280;3044;43.232;27.972;2022-07-22T04:41:07;44898.66;;;-143.84;35.93
6032;BME280;3044;43.232;27.972;2022-07-22T04:43:34;44898.66;;;-143.84;35.47
6032;BME280;3044;43.232;27.972;2022-07-22T04:46:01;44879.59;;;-143.84;35.09
6032;BME280;3044;43.232;27.972;2022-07-22T04:48:30;44873.88;;;-143.84;35.05
6032;BME280;3044;43.232;27.972;2022-07-22T04:50:58;44870.09;;;-143.84;35.11
6032;BME280;3044;43.232;27.972;2022-07-22T04:53:26;44881.50;;;-143.84;34.96
6032;BME280;3044;43.232;27.972;2022-07-22T04:55:53;44856.75;;;-143.84;34.58
6032;BME280;3044;43.232;27.972;2022-07-22T04:58:21;44870.09;;;-143.84;34.05
6032;BME280;3044;43.232;27.972;2022-07-22T05:00:49;44868.19;;;-143.84;34.51
6032;BME280;3044;43.232;27.972;2022-07-22T05:03:16;44866.28;;;-143.84;34.37
6032;BME280;3044;43.232;27.972;2022-07-22T05:05:45;44830.09;;;-143.84;33.97
6032;BME280;3044;43.232;27.972;2022-07-22T05:08:12;44894.84;;;-143.84;33.80
6032;BME280;3044;43.232;27.972;2022-07-22T05:10:39;44845.31;;;-143.84;32.99
6032;BME280;3044;43.232;27.972;2022-07-22T05:13:06;44822.47;;;-143.84;33.98
6032;BME280;3044;43.232;27.972;2022-07-22T05:15:34;44883.41;;;-143.84;33.95
6032;BME280;3044;43.232;27.972;2022-07-22T05:18:01;44833.91;;;-143.84;33.32
6032;BME280;3044;43.232;27.972;2022-07-22T05:20:28;44851.03;;;-143.84;33.11
6032;BME280;3044;43.232;27.972;2022-07-22T05:22:56;44847.22;;;-143.84;33.00
6032;BME280;3044;43.232;27.972;2022-07-22T05:25:24;44830.09;;;-143.84;33.54
6032;BME280;3044;43.232;27.972;2022-07-22T05:27:52;44856.75;;;-143.84;33.80
6032;BME280;3044;43.232;27.972;2022-07-22T05:30:20;44847.22;;;-143.84;33.28
6032;BME280;3044;43.232;27.972;2022-07-22T05:32:47;44832.00;;;-143.84;32.72
6032;BME280;3044;43.232;27.972;2022-07-22T05:35:15;44849.13;;;-143.84;31.67
6032;BME280;3044;43.232;27.972;2022-07-22T05:37:42;44858.66;;;-143.84;30.64
6032;BME280;3044;43.232;27.972;2022-07-22T05:40:11;44833.91;;;-143.84;30.53
6032;BME280;3044;43.232;27.972;2022-07-22T05:42:38;44841.53;;;-143.84;29.71
6032;BME280;3044;43.232;27.972;2022-07-22T05:45:06;44824.38;;;-143.84;29.47
6032;BME280;3044;43.232;27.972;2022-07-22T05:47:33;44822.47;;;-143.84;29.73
6032;BME280;3044;43.232;27.972;2022-07-22T05:50:01;44841.53;;;-143.84;28.50
6032;BME280;3044;43.232;27.972;2022-07-22T05:52:28;44824.38;;;-143.84;28.73
6032;BME280;3044;43.232;27.972;2022-07-22T05:54:55;44826.28;;;-143.84;28.53
6032;BME280;3044;43.232;27.972;2022-07-22T05:57:23;44805.34;;;-143.84;28.28
6032;BME280;3044;43.232;27.972;2022-07-22T05:59:51;44830.09;;;-143.84;27.71
6032;BME280;3044;43.232;27.972;2022-07-22T06:02:18;44824.38;;;-143.84;28.39
6032;BME280;3044;43.232;27.972;2022-07-22T06:04:45;44839.63;;;-143.84;28.01
6032;BME280;3044;43.232;27.972;2022-07-22T06:07:12;44797.72;;;-143.84;27.54
6032;BME280;3044;43.232;27.972;2022-07-22T06:09:39;44790.13;;;-143.84;27.66
6032;BME280;3044;43.232;27.972;2022-07-22T06:12:07;44790.13;;;-143.84;27.39
6032;BME280;3044;43.232;27.972;2022-07-22T06:14:35;44818.66;;;-143.84;27.28
6032;BME280;3044;43.232;27.972;2022-07-22T06:17:03;44771.06;;;-143.84;27.15
6032;BME280;3044;43.232;27.972;2022-07-22T06:19:30;44797.72;;;-143.84;26.97
6032;BME280;3044;43.232;27.972;2022-07-22T06:21:58;44771.06;;;-143.84;27.20
6032;BME280;3044;43.232;27.972;2022-07-22T06:24:25;44755.84;;;-143.84;28.02
6032;BME280;3044;43.232;27.972;2022-07-22T06:26:52;44746.31;;;-143.84;27.48
6032;BME280;3044;43.232;27.972;2022-07-22T06:29:19;44792.00;;;-143.84;26.65
6032;BME280;3044;43.232;27.972;2022-07-22T06:31:48;44769.16;;;-143.84;26.96
6032;BME280;3044;43.232;27.972;2022-07-22T06:34:15;44765.34;;;-143.84;27.10
6032;BME280;3044;43.232;27.972;2022-07-22T06:36:42;44748.22;;;-143.84;26.05
6032;BME280;3044;43.232;27.972;2022-07-22T06:39:10;44738.69;;;-143.84;26.64
6032;BME280;3044;43.232;27.972;2022-07-22T06:41:37;44746.31;;;-143.84;25.82
6032;BME280;3044;43.232;27.972;2022-07-22T06:44:04;44753.94;;;-143.84;26.08
6032;BME280;3044;43.232;27.972;2022-07-22T06:46:32;44753.94;;;-143.84;25.94
6032;BME280;3044;43.232;27.972;2022-07-22T06:49:00;44729.19;;;-143.84;25.44
6032;BME280;3044;43.232;27.972;2022-07-22T06:51:27;44750.13;;;-143.84;26.59
6032;BME280;3044;43.232;27.972;2022-07-22T06:53:55;44689.19;;;-143.84;26.73
6032;BME280;3044;43.232;27.972;2022-07-22T06:56:22;44753.94;;;-143.84;25.84
6032;BME280;3044;43.232;27.972;2022-07-22T06:58:50;44723.47;;;-143.84;25.00
6032;BME280;3044;43.232;27.972;2022-07-22T07:01:17;44771.06;;;-143.84;25.63
6032;BME280;3044;43.232;27.972;2022-07-22T07:03:44;44738.69;;;-143.84;26.05
6032;BME280;3044;43.232;27.972;2022-07-22T07:06:13;44725.38;;;-143.84;25.17
6032;BME280;3044;43.232;27.972;2022-07-22T07:08:40;44683.50;;;-143.84;25.49
6032;BME280;3044;43.232;27.972;2022-07-22T07:11:07;44740.59;;;-143.84;24.75
6032;BME280;3044;43.232;27.972;2022-07-22T07:13:35;44744.41;;;-143.84;25.15
6032;BME280;3044;43.232;27.972;2022-07-22T07:16:02;44742.50;;;-143.84;25.59
6032;BME280;3044;43.232;27.972;2022-07-22T07:18:29;44717.75;;;-143.84;25.39
6032;BME280;3044;43.232;27.972;2022-07-22T07:20:56;44715.84;;;-143.84;25.13
6032;BME280;3044;43.232;27.972;2022-07-22T07:23:25;44740.59;;;-143.84;25.77
6032;BME280;3044;43.232;27.972;2022-07-22T07:25:52;44725.38;;;-143.84;25.46
6032;BME280;3044;43.232;27.972;2022-07-22T07:28:19;44683.50;;;-143.84;25.26
6032;BME280;3044;43.232;27.972;2022-07-22T07:30:47;44673.97;;;-143.84;25.22
6032;BME280;3044;43.232;27.972;2022-07-22T07:33:15;44717.75;;;-143.84;24.82
6032;BME280;3044;43.232;27.972;2022-07-22T07:35:42;44677.78;;;-143.84;25.24
6032;BME280;3044;43.232;27.972;2022-07-22T07:38:09;44687.28;;;-143.84;24.54
6032;BME280;3044;43.232;27.972;2022-07-22T07:40:38;44685.38;;;-143.84;24.62
6032;BME280;3044;43.232;27.972;2022-07-22T07:43:05;44666.34;;;-143.84;24.52
6032;BME280;3044;43.232;27.972;2022-07-22T07:45:32;44687.28;;;-143.84;24.44
6032;BME280;3044;43.232;27.972;2022-07-22T07:48:00;44673.97;;;-143.84;23.49
6032;BME280;3044;43.232;27.972;2022-07-22T07:50:28;44658.75;;;-143.84;24.36
6032;BME280;3044;43.232;27.972;2022-07-22T07:52:56;44683.50;;;-143.84;24.12
6032;BME280;3044;43.232;27.972;2022-07-22T07:55:23;44679.69;;;-143.84;24.09
6032;BME280;3044;43.232;27.972;2022-07-22T07:57:52;44651.13;;;-143.84;24.67
6032;BME280;3044;43.232;27.972;2022-07-22T08:00:22;44681.59;;;-143.84;23.78
6032;BME280;3044;43.232;27.972;2022-07-22T08:02:49;44664.44;;;-143.84;23.58
6032;BME280;3044;43.232;27.972;2022-07-22T08:05:17;44679.69;;;-143.84;25.22
6032;BME280;3044;43.232;27.972;2022-07-22T08:07:46;44666.34;;;-143.84;24.01
6032;BME280;3044;43.232;27.972;2022-07-22T08:10:13;44689.19;;;-143.84;25.00
6032;BME280;3044;43.232;27.972;2022-07-22T08:12:41;44675.88;;;-143.84;25.06
6032;BME280;3044;43.232;27.972;2022-07-22T08:15:09;44698.72;;;-143.84;25.06
6032;BME280;3044;43.232;27.972;2022-07-22T08:17:37;44685.38;;;-143.84;25.20
6032;BME280;3044;43.232;27.972;2022-07-22T08:20:05;44672.06;;;-143.84;24.21
6032;BME280;3044;43.232;27.972;2022-07-22T08:22:33;44679.69;;;-143.84;25.05
6032;BME280;3044;43.232;27.972;2022-07-22T08:25:00;44679.69;;;-143.84;25.33
6032;BME280;3044;43.232;27.972;2022-07-22T08:27:28;44708.25;;;-143.84;25.43
6032;BME280;3044;43.232;27.972;2022-07-22T08:29:55;44679.69;;;-143.84;25.17
6032;BME280;3044;43.232;27.972;2022-07-22T08:32:23;44708.25;;;-143.84;24.80
6032;BME280;3044;43.232;27.972;2022-07-22T08:34:51;44662.53;;;-143.84;25.31
6032;BME280;3044;43.232;27.972;2022-07-22T08:37:18;44715.84;;;-143.84;25.41
6032;BME280;3044;43.232;27.972;2022-07-22T08:39:45;44679.69;;;-143.84;24.78
6032;BME280;3044;43.232;27.972;2022-07-22T08:42:12;44691.09;;;-143.84;24.48
6032;BME280;3044;43.232;27.972;2022-07-22T08:44:40;44704.44;;;-143.84;24.78
6032;BME280;3044;43.232;27.972;2022-07-22T08:47:08;44679.69;;;-143.84;24.17
6032;BME280;3044;43.232;27.972;2022-07-22T08:49:38;44702.53;;;-143.84;25.09
6032;BME280;3044;43.232;27.972;2022-07-22T08:52:05;44681.59;;;-143.84;25.23
6032;BME280;3044;43.232;27.972;2022-07-22T08:54:33;44658.75;;;-143.84;24.89
6032;BME280;3044;43.232;27.972;2022-07-22T08:57:00;44708.25;;;-143.84;24.55
6032;BME280;3044;43.232;27.972;2022-07-22T08:59:27;44694.91;;;-143.84;25.12
6032;BME280;3044;43.232;27.972;2022-07-22T09:02:05;44683.50;;;-143.84;24.97
6032;BME280;3044;43.232;27.972;2022-07-22T09:04:52;44702.53;;;-143.84;24.95
6032;BME280;3044;43.232;27.972;2022-07-22T09:07:27;44691.09;;;-143.84;25.05
6032;BME280;3044;43.232;27.972;2022-07-22T09:09:55;44704.44;;;-143.84;25.50
6032;BME280;3044;43.232;27.972;2022-07-22T09:12:23;44710.16;;;-143.84;25.61
6032;BME280;3044;43.232;27.972;2022-07-22T09:14:55;44660.63;;;-143.84;24.66
6032;BME280;3044;43.232;27.972;2022-07-22T09:17:28;44746.31;;;-143.84;24.71
6032;BME280;3044;43.232;27.972;2022-07-22T09:19:59;44687.28;;;-143.84;24.43
6032;BME280;3044;43.232;27.972;2022-07-22T09:25:17;44687.28;;;-143.84;24.77
6032;BME280;3044;43.232;27.972;2022-07-22T09:27:45;44675.88;;;-143.84;25.11
6032;BME280;3044;43.232;27.972;2022-07-22T09:30:13;44668.25;;;-143.84;24.97
6032;BME280;3044;43.232;27.972;2022-07-22T09:32:41;44670.16;;;-143.84;25.42
6032;BME280;3044;43.232;27.972;2022-07-22T09:35:11;44683.50;;;-143.84;24.50
6032;BME280;3044;43.232;27.972;2022-07-22T09:37:50;44683.50;;;-143.84;25.53
6032;BME280;3044;43.232;27.972;2022-07-22T09:40:19;44670.16;;;-143.84;26.04
6032;BME280;3044;43.232;27.972;2022-07-22T09:42:50;44698.72;;;-143.84;25.19
6032;BME280;3044;43.232;27.972;2022-07-22T09:45:18;44653.03;;;-143.84;24.67
6032;BME280;3044;43.232;27.972;2022-07-22T09:47:46;44694.91;;;-143.84;25.49
6032;BME280;3044;43.232;27.972;2022-07-22T09:50:17;44641.59;;;-143.84;25.98
6032;BME280;3044;43.232;27.972;2022-07-22T09:52:45;44660.63;;;-143.84;25.71
6032;BME280;3044;43.232;27.972;2022-07-22T09:55:14;44668.25;;;-143.84;26.24
6032;BME280;3044;43.232;27.972;2022-07-22T09:57:42;44651.13;;;-143.84;25.66
6032;BME280;3044;43.232;27.972;2022-07-22T10:00:10;44668.25;;;-143.84;25.05
6032;BME280;3044;43.232;27.972;2022-07-22T10:02:41;44694.91;;;-143.84;25.23
6032;BME280;3044;43.232;27.972;2022-07-22T10:05:12;44694.91;;;-143.84;26.06
6032;BME280;3044;43.232;27.972;2022-07-22T10:07:43;44694.91;;;-143.84;24.84
6032;BME280;3044;43.232;27.972;2022-07-22T10:10:12;44691.09;;;-143.84;28.51
6032;BME280;3044;43.232;27.972;2022-07-22T10:12:40;44685.38;;;-143.84;29.10
6032;BME280;3044;43.232;27.972;2022-07-22T10:15:08;44738.69;;;-143.84;27.75
6032;BME280;3044;43.232;27.972;2022-07-22T10:17:37;44757.75;;;-143.84;27.63
6032;BME280;3044;43.232;27.972;2022-07-22T10:20:05;44748.22;;;-143.84;28.16
6032;BME280;3044;43.232;27.972;2022-07-22T10:22:52;44710.16;;;-143.84;31.03
6032;BME280;3044;43.232;27.972;2022-07-22T10:25:21;44717.75;;;-143.84;30.50
6032;BME280;3044;43.232;27.972;2022-07-22T10:27:51;44729.19;;;-143.84;31.86
6032;BME280;3044;43.232;27.972;2022-07-22T10:30:20;44786.31;;;-143.84;31.06
6032;BME280;3044;43.232;27.972;2022-07-22T10:33:04;44790.13;;;-143.84;32.16
6032;BME280;3044;43.232;27.972;2022-07-22T10:35:32;44811.06;;;-143.84;32.43
6032;BME280;3044;43.232;27.972;2022-07-22T10:38:03;44801.53;;;-143.84;31.69
6032;BME280;3044;43.232;27.972;2022-07-22T10:40:45;44828.19;;;-143.84;31.12
6032;BME280;3044;43.232;27.972;2022-07-22T10:43:13;44809.16;;;-143.84;32.97
6032;BME280;3044;43.232;27.972;2022-07-22T10:45:44;44792.00;;;-143.84;33.67
6032;BME280;3044;43.232;27.972;2022-07-22T10:48:14;44803.44;;;-143.84;32.64
6032;BME280;3044;43.232;27.972;2022-07-22T10:50:44;44738.69;;;-143.84;32.63
6032;BME280;3044;43.232;27.972;2022-07-22T10:53:15;44820.56;;;-143.84;32.15
6032;BME280;3044;43.232;27.972;2022-07-22T10:56:02;44797.72;;;-143.84;32.42
6032;BME280;3044;43.232;27.972;2022-07-22T10:58:41;44803.44;;;-143.84;33.25
6032;BME280;3044;43.232;27.972;2022-07-22T11:01:10;44792.00;;;-143.84;32.40
6032;BME280;3044;43.232;27.972;2022-07-22T11:03:41;44811.06;;;-143.84;33.63
6032;BME280;3044;43.232;27.972;2022-07-22T11:06:14;44822.47;;;-143.84;34.20
6032;BME280;3044;43.232;27.972;2022-07-22T11:08:44;44816.78;;;-143.84;34.98
6032;BME280;3044;43.232;27.972;2022-07-22T11:11:11;44812.97;;;-143.84;34.74
6032;BME280;3044;43.232;27.972;2022-07-22T11:13:40;44822.47;;;-143.84;35.89
6032;BME280;3044;43.232;27.972;2022-07-22T11:16:15;44818.66;;;-143.84;36.09
6032;BME280;3044;43.232;27.972;2022-07-22T11:18:51;44812.97;;;-143.84;34.60
6032;BME280;3044;43.232;27.972;2022-07-22T11:21:20;44811.06;;;-143.84;34.73
6032;BME280;3044;43.232;27.972;2022-07-22T11:23:50;44841.53;;;-143.84;34.47
6032;BME280;3044;43.232;27.972;2022-07-22T11:26:20;44858.66;;;-143.84;36.02
6032;BME280;3044;43.232;27.972;2022-07-22T11:28:51;44835.81;;;-143.84;35.98
6032;BME280;3044;43.232;27.972;2022-07-22T11:31:19;44832.00;;;-143.84;34.27
6032;BME280;3044;43.232;27.972;2022-07-22T11:33:46;44858.66;;;-143.84;35.52
6032;BME280;3044;43.232;27.972;2022-07-22T11:36:14;44811.06;;;-143.84;36.95
6032;BME280;3044;43.232;27.972;2022-07-22T11:38:45;44864.38;;;-143.84;38.31
6032;BME280;3044;43.232;27.972;2022-07-22T11:41:16;44866.28;;;-143.84;37.16
6032;BME280;3044;43.232;27.972;2022-07-22T11:43:45;44841.53;;;-143.84;38.10
6032;BME280;3044;43.232;27.972;2022-07-22T11:46:13;44849.13;;;-143.84;35.47
6032;BME280;3044;43.232;27.972;2022-07-22T11:48:42;44864.38;;;-143.84;34.95
6032;BME280;3044;43.232;27.972;2022-07-22T11:51:10;44860.56;;;-143.84;37.64
6032;BME280;3044;43.232;27.972;2022-07-22T11:53:38;44845.31;;;-143.84;34.98
6032;BME280;3044;43.232;27.972;2022-07-22T11:56:07;44822.47;;;-143.84;34.61
6032;BME280;3044;43.232;27.972;2022-07-22T11:58:41;44858.66;;;-143.84;34.01
6032;BME280;3044;43.232;27.972;2022-07-22T12:01:10;44812.97;;;-143.84;36.10
6032;BME280;3044;43.232;27.972;2022-07-22T12:03:40;44801.53;;;-143.84;36.76
6032;BME280;3044;43.232;27.972;2022-07-22T12:06:12;44868.19;;;-143.84;35.73
6032;BME280;3044;43.232;27.972;2022-07-22T12:08:42;44868.19;;;-143.84;35.28
6032;BME280;3044;43.232;27.972;2022-07-22T12:11:11;44866.28;;;-143.84;33.25
6032;BME280;3044;43.232;27.972;2022-07-22T12:13:43;44862.47;;;-143.84;32.15
6032;BME280;3044;43.232;27.972;2022-07-22T12:16:23;44851.03;;;-143.84;32.99
6032;BME280;3044;43.232;27.972;2022-07-22T12:18:56;44858.66;;;-143.84;33.27
6032;BME280;3044;43.232;27.972;2022-07-22T12:21:25;44843.44;;;-143.84;34.43
6032;BME280;3044;43.232;27.972;2022-07-22T12:23:54;44875.78;;;-143.84;35.53
6032;BME280;3044;43.232;27.972;2022-07-22T12:26:42;44852.94;;;-143.84;36.23
6032;BME280;3044;43.232;27.972;2022-07-22T12:29:22;44868.19;;;-143.84;36.07
6032;BME280;3044;43.232;27.972;2022-07-22T12:31:51;44864.38;;;-143.84;39.41
6032;BME280;3044;43.232;27.972;2022-07-22T12:34:30;44851.03;;;-143.84;40.12
6032;BME280;3044;43.232;27.972;2022-07-22T12:36:57;44891.03;;;-143.84;40.97
6032;BME280;3044;43.232;27.972;2022-07-22T12:39:24;44881.50;;;-143.84;41.89
6032;BME280;3044;43.232;27.972;2022-07-22T12:41:53;44875.78;;;-143.84;41.45
6032;BME280;3044;43.232;27.972;2022-07-22T12:44:24;44873.88;;;-143.84;42.79
6032;BME280;3044;43.232;27.972;2022-07-22T12:46:54;44885.31;;;-143.84;41.88
6032;BME280;3044;43.232;27.972;2022-07-22T12:49:23;44891.03;;;-143.84;40.16
6032;BME280;3044;43.232;27.972;2022-07-22T12:52:07;44906.25;;;-143.84;40.83
6032;BME280;3044;43.232;27.972;2022-07-22T12:54:35;44898.66;;;-143.84;43.56
6032;BME280;3044;43.232;27.972;2022-07-22T12:57:03;44915.78;;;-143.84;44.28
6032;BME280;3044;43.232;27.972;2022-07-22T12:59:32;44892.94;;;-143.84;46.49